Página principal
METAR-TAF:

METAR-TAF

Aeroportos :

Burgos, Espanha

latitude: 42-22N, longitude: 003-38W, altura: 894 m

Observação actual do tempo

O boletim foi feito há 18 minutos, às 11:00 UTC
Vento 11 kt de nor-nordeste, variando entre norte e es-nordeste
Temperatura 21°C
Humidade 53%
Pressão 1025 hPa
Visibilidade 10 km ou mais
sem nuvens abaixo de 1500 metros e sem cumulonimbus

METAR: LEBG 191100Z 03011KT 360V070 CAVOK 21/11 Q1025

Hora: 13:18 (11:18 UTC)

Previsão

O boletim foi feito há 3 horas e 18 minutos, às 08:00 UTC
Previsão válida de 19 às 09 UTC a 19 às 18 UTC
Vento 10 kt de es-nordeste
Visibilidade 10 km ou mais
Poucas nuvensa uma altura de 2500 ft
Temporariamente
de 19 às 12 UTC a 19 às 18 UTC
Vento 15 kt de es-nordeste com rajadas de 25 kt

TAF: LEBG 190800Z 1909/1918 06010KT 9999 FEW025 TEMPO 1912/1918 06015G25KT

Observações e previsões do tempo de mais de 4000 aeroportos (mensagens METAR e TAF).

As estações disponíveis são os pontos amarelos e vermelhos sobre o mapa.

Mova o rato sobre o mapa para ver o nome da estação.

Depois clique no ponto para visualizar as observações e previsões meteorológicas.

Para alterar o mapa : clique nos botões verdes com uma cruz preta para aumentar o zoom; no botão verde com uma pitada de zoom; ou nas setas verdes para mapas adjacentes.


METAR-TAF: